Time;durP1;ratioP1;P1;durP2;ratioP2;P2;SDS_P1;SDS_P2;PMS_P1;PMS_P2;Temp;Humidity;BMP_temperature;BMP_pressure;BME280_temperature;BME280_humidity;BME280_pressure;Samples;Min_cycle;Max_cycle;Signal;HPM_P1;HPM_P2
2023/09/20 00:01:33;;;;;;;0.60;0.60;;;12.30;99.90;;;;;;5051878;28;20487;-62
2023/09/20 00:04:01;;;;;;;1.47;1.37;;;12.20;99.90;;;;;;5051807;28;20514;-62
2023/09/20 00:06:28;;;;;;;1.00;0.90;;;12.20;99.90;;;;;;5051262;28;20503;-62
2023/09/20 00:08:53;;;;;;;0.40;0.40;;;12.20;99.90;;;;;;5051676;28;20416;-62
2023/09/20 00:11:19;;;;;;;0.93;0.83;;;12.30;99.90;;;;;;5051703;28;20713;-62
2023/09/20 00:13:45;;;;;;;0.60;0.60;;;12.40;99.90;;;;;;5051848;28;20170;-62
2023/09/20 00:16:11;;;;;;;0.73;0.70;;;12.40;99.90;;;;;;5051247;28;20631;-62
2023/09/20 00:18:37;;;;;;;0.50;0.50;;;12.40;99.90;;;;;;5051633;28;20495;-62
2023/09/20 00:21:04;;;;;;;1.03;1.03;;;12.40;99.90;;;;;;5051610;28;20653;-62
2023/09/20 00:23:29;;;;;;;1.73;1.17;;;12.40;99.90;;;;;;5051494;28;20456;-62
2023/09/20 00:25:55;;;;;;;1.17;1.03;;;12.40;99.90;;;;;;5051162;28;20905;-62
2023/09/20 00:28:21;;;;;;;0.40;0.40;;;12.40;99.90;;;;;;5051522;28;20167;-62
2023/09/20 00:30:47;;;;;;;0.53;0.53;;;12.30;99.90;;;;;;5051472;28;20864;-62
2023/09/20 00:33:13;;;;;;;0.67;0.67;;;12.20;99.90;;;;;;5051556;28;20336;-62
2023/09/20 00:35:39;;;;;;;0.60;0.60;;;12.10;99.90;;;;;;5050833;28;20460;-62
2023/09/20 00:38:05;;;;;;;2.60;0.80;;;12.10;99.90;;;;;;5051340;28;20596;-62
2023/09/20 00:40:33;;;;;;;0.50;0.50;;;12.20;99.90;;;;;;5051292;28;20411;-62
2023/09/20 00:42:58;;;;;;;1.00;1.00;;;12.30;99.90;;;;;;5051496;28;20416;-62
2023/09/20 00:45:24;;;;;;;0.80;0.80;;;12.30;99.90;;;;;;5050936;28;20432;-62
2023/09/20 00:47:57;;;;;;;1.30;1.20;;;12.20;99.90;;;;;;5051252;28;20495;-62
2023/09/20 00:50:31;;;;;;;0.50;0.50;;;12.20;99.90;;;;;;5052448;28;20415;-62
2023/09/20 00:52:57;;;;;;;1.97;1.87;;;12.20;99.90;;;;;;5055403;28;20394;-63
2023/09/20 00:55:31;;;;;;;1.23;1.23;;;12.30;99.90;;;;;;5055160;28;21040;-62
2023/09/20 00:58:03;;;;;;;0.90;0.90;;;12.40;99.90;;;;;;5056110;28;20406;-62
2023/09/20 01:00:32;;;;;;;0.80;0.70;;;12.40;99.90;;;;;;5055362;28;20404;-62
2023/09/20 01:03:00;;;;;;;0.70;0.70;;;12.30;99.90;;;;;;5055172;28;20400;-62
2023/09/20 01:05:27;;;;;;;0.87;0.87;;;12.20;99.90;;;;;;5054605;28;20440;-62
2023/09/20 01:07:55;;;;;;;0.97;0.90;;;12.10;99.90;;;;;;5055051;28;20802;-62
2023/09/20 01:10:25;;;;;;;0.50;0.50;;;12.00;99.90;;;;;;5055024;28;20964;-62
2023/09/20 01:12:57;;;;;;;0.80;0.80;;;11.80;99.90;;;;;;5055117;28;20440;-62
2023/09/20 01:15:24;;;;;;;2.97;0.97;;;11.90;99.90;;;;;;5055060;28;20456;-62
2023/09/20 01:17:58;;;;;;;0.40;0.40;;;11.90;99.90;;;;;;5054782;28;20405;-62
2023/09/20 01:20:29;;;;;;;0.70;0.70;;;11.90;99.90;;;;;;5054884;28;20392;-62
2023/09/20 01:22:56;;;;;;;0.50;0.50;;;11.90;99.90;;;;;;5054775;28;20439;-62
2023/09/20 01:25:25;;;;;;;0.70;0.70;;;12.10;99.90;;;;;;5054391;28;20435;-62
2023/09/20 01:27:55;;;;;;;0.50;0.50;;;12.20;99.90;;;;;;5037164;28;20428;-62
2023/09/20 01:30:27;;;;;;;2.17;2.07;;;12.00;99.90;;;;;;5054591;28;20427;-62
2023/09/20 01:32:58;;;;;;;0.50;0.50;;;12.00;99.90;;;;;;5054894;28;20824;-63
2023/09/20 01:35:25;;;;;;;1.17;1.03;;;12.00;99.90;;;;;;5054095;28;20460;-62
2023/09/20 01:37:51;;;;;;;0.83;0.83;;;12.00;99.90;;;;;;5054555;28;20529;-62
2023/09/20 01:40:19;;;;;;;0.60;0.60;;;12.10;99.90;;;;;;5054746;28;20971;-62
2023/09/20 01:42:48;;;;;;;0.53;0.50;;;12.10;99.90;;;;;;5054352;28;20400;-62
2023/09/20 01:45:18;;;;;;;0.77;0.67;;;12.10;99.90;;;;;;5054153;28;20408;-62
2023/09/20 01:47:49;;;;;;;0.57;0.57;;;12.10;99.90;;;;;;5054489;28;20417;-62
2023/09/20 01:50:25;;;;;;;1.27;1.03;;;12.10;99.90;;;;;;5054342;28;20408;-62
2023/09/20 01:52:55;;;;;;;0.43;0.43;;;12.00;99.90;;;;;;5054319;28;20404;-62
2023/09/20 01:55:22;;;;;;;0.80;0.73;;;12.00;99.90;;;;;;5053729;28;20452;-63
2023/09/20 01:57:59;;;;;;;0.80;0.80;;;11.90;99.90;;;;;;5054138;28;20412;-62
2023/09/20 02:00:36;;;;;;;1.23;1.17;;;11.80;99.90;;;;;;5054113;28;20413;-62
2023/09/20 02:03:10;;;;;;;0.97;0.97;;;11.90;99.90;;;;;;5054115;28;20397;-62
2023/09/20 02:05:38;;;;;;;1.37;1.27;;;11.90;99.90;;;;;;5053470;28;20445;-62
2023/09/20 02:08:05;;;;;;;1.27;0.90;;;12.00;99.90;;;;;;5053978;28;20953;-62
2023/09/20 02:10:32;;;;;;;0.70;0.60;;;12.00;99.90;;;;;;5054092;28;20415;-62
2023/09/20 02:12:59;;;;;;;0.60;0.60;;;12.00;99.90;;;;;;5054118;28;20401;-62
2023/09/20 02:15:27;;;;;;;1.50;0.90;;;12.00;99.90;;;;;;5053532;28;20518;-62
2023/09/20 02:17:54;;;;;;;0.83;0.83;;;12.10;99.90;;;;;;5055101;28;20404;-63
2023/09/20 02:20:24;;;;;;;0.50;0.50;;;12.10;99.90;;;;;;5053566;28;20488;-62
2023/09/20 02:22:54;;;;;;;0.60;0.60;;;12.10;99.90;;;;;;5053679;28;20411;-63
2023/09/20 02:25:20;;;;;;;0.40;0.40;;;12.10;99.90;;;;;;5053361;28;20433;-62
2023/09/20 02:27:47;;;;;;;0.60;0.60;;;12.00;99.90;;;;;;5053552;28;20503;-62
2023/09/20 02:30:19;;;;;;;7.10;0.80;;;11.90;99.90;;;;;;5053579;28;20468;-62
2023/09/20 02:32:46;;;;;;;0.70;0.70;;;11.80;99.90;;;;;;5053430;28;20433;-62
2023/09/20 02:35:12;;;;;;;0.60;0.60;;;11.90;99.90;;;;;;5053107;28;20459;-62
2023/09/20 02:37:40;;;;;;;0.60;0.60;;;12.00;99.90;;;;;;5035412;28;20480;-62
2023/09/20 02:40:07;;;;;;;0.40;0.40;;;11.90;99.90;;;;;;5053501;28;20178;-62
2023/09/20 02:42:43;;;;;;;0.80;0.80;;;11.90;99.90;;;;;;5053281;28;20397;-62
2023/09/20 02:45:10;;;;;;;0.43;0.43;;;11.80;99.90;;;;;;5053181;28;20416;-62
2023/09/20 02:47:36;;;;;;;1.33;1.30;;;11.90;99.90;;;;;;5053266;28;20942;-62
2023/09/20 02:50:04;;;;;;;0.40;0.40;;;12.00;99.90;;;;;;5053483;28;20400;-62
2023/09/20 02:52:33;;;;;;;1.43;1.33;;;12.00;99.90;;;;;;5053187;28;20169;-62
2023/09/20 02:55:00;;;;;;;1.90;0.93;;;11.90;99.90;;;;;;5052940;28;20456;-62
2023/09/20 02:57:26;;;;;;;0.50;0.50;;;11.80;99.90;;;;;;5051514;28;20439;-62
2023/09/20 02:59:52;;;;;;;0.73;0.73;;;11.80;99.90;;;;;;5052977;28;20404;-63
2023/09/20 03:02:19;;;;;;;0.73;0.67;;;11.80;99.90;;;;;;5052951;28;20409;-62
2023/09/20 03:04:45;;;;;;;0.77;0.77;;;11.70;99.90;;;;;;5052844;28;20240;-62
2023/09/20 03:07:10;;;;;;;1.23;1.13;;;11.70;99.90;;;;;;5052518;28;20972;-62
2023/09/20 03:09:36;;;;;;;1.33;0.73;;;11.60;99.90;;;;;;5052811;28;20192;-62
2023/09/20 03:12:06;;;;;;;0.50;0.50;;;11.70;99.90;;;;;;5052562;28;20180;-62
2023/09/20 03:14:33;;;;;;;1.27;1.17;;;11.80;99.90;;;;;;5035027;28;20284;-62
2023/09/20 03:17:02;;;;;;;0.60;0.60;;;11.80;99.90;;;;;;5052217;28;20512;-62
2023/09/20 03:19:29;;;;;;;0.70;0.70;;;11.80;99.90;;;;;;5052622;28;20412;-62
2023/09/20 03:21:55;;;;;;;0.87;0.87;;;11.70;99.90;;;;;;5052670;28;20443;-62
2023/09/20 03:24:20;;;;;;;0.80;0.67;;;11.70;99.90;;;;;;5052613;28;20440;-62
2023/09/20 03:26:46;;;;;;;1.27;1.17;;;11.70;99.90;;;;;;5052049;28;20433;-62
2023/09/20 03:29:12;;;;;;;1.50;1.40;;;11.70;99.90;;;;;;5052610;28;20212;-62
2023/09/20 03:31:38;;;;;;;0.93;0.90;;;11.60;99.90;;;;;;5052331;28;20933;-62
2023/09/20 03:34:05;;;;;;;1.23;1.23;;;11.60;99.90;;;;;;5052341;28;20204;-62
2023/09/20 03:36:32;;;;;;;0.80;0.63;;;11.70;99.90;;;;;;5051899;28;20429;-62
2023/09/20 03:38:59;;;;;;;0.70;0.70;;;11.80;99.90;;;;;;5052934;28;20415;-62
2023/09/20 03:41:24;;;;;;;0.90;0.67;;;11.70;99.90;;;;;;5052144;28;20495;-62
2023/09/20 03:43:50;;;;;;;1.53;1.43;;;11.70;99.90;;;;;;5052193;28;20814;-62
2023/09/20 03:46:16;;;;;;;1.00;1.00;;;11.60;99.90;;;;;;5051690;28;20204;-62
2023/09/20 03:48:43;;;;;;;0.77;0.77;;;11.50;99.90;;;;;;5052123;28;20166;-62
2023/09/20 03:51:15;;;;;;;0.60;0.60;;;11.60;99.90;;;;;;5052064;28;20416;-62
2023/09/20 03:53:42;;;;;;;1.23;1.03;;;11.60;99.90;;;;;;5052026;28;20421;-63
2023/09/20 03:56:11;;;;;;;0.80;0.80;;;11.50;99.90;;;;;;5051474;28;20484;-62
2023/09/20 03:58:37;;;;;;;1.37;1.07;;;11.50;99.90;;;;;;5052057;28;20408;-62
2023/09/20 04:01:03;;;;;;;0.97;0.97;;;11.50;99.90;;;;;;5051850;28;20484;-62
2023/09/20 04:03:28;;;;;;;1.37;1.37;;;11.60;99.90;;;;;;5051843;28;20852;-62
2023/09/20 04:05:57;;;;;;;1.37;1.30;;;11.70;99.90;;;;;;5051361;28;20212;-62
2023/09/20 04:08:22;;;;;;;0.83;0.83;;;11.70;99.90;;;;;;5051701;28;20174;-62
2023/09/20 04:10:48;;;;;;;1.47;0.83;;;11.70;99.90;;;;;;5051719;28;20413;-62
2023/09/20 04:13:15;;;;;;;0.40;0.40;;;11.60;99.90;;;;;;5051729;28;20181;-62
2023/09/20 04:15:42;;;;;;;2.10;1.03;;;11.50;99.90;;;;;;5051189;28;20288;-62
2023/09/20 04:18:08;;;;;;;0.60;0.60;;;11.50;99.90;;;;;;5051579;28;20447;-62
2023/09/20 04:20:34;;;;;;;1.47;1.37;;;11.50;99.90;;;;;;5051608;28;20918;-62
2023/09/20 04:23:00;;;;;;;1.10;0.80;;;11.50;99.90;;;;;;5051521;28;20410;-62
2023/09/20 04:25:25;;;;;;;0.60;0.60;;;11.60;99.90;;;;;;5050265;28;20596;-62
2023/09/20 04:27:51;;;;;;;0.70;0.70;;;11.60;99.90;;;;;;5051494;28;20223;-62
2023/09/20 04:30:18;;;;;;;0.50;0.40;;;11.50;99.90;;;;;;5051535;28;20180;-62
2023/09/20 04:32:43;;;;;;;2.93;2.73;;;11.60;99.90;;;;;;5051517;28;20231;-62
2023/09/20 04:35:09;;;;;;;0.70;0.60;;;11.70;99.90;;;;;;5051204;28;20444;-62
2023/09/20 04:37:35;;;;;;;0.60;0.60;;;11.60;99.90;;;;;;5051120;28;20166;-62
2023/09/20 04:40:00;;;;;;;0.73;0.50;;;11.60;99.90;;;;;;5051480;28;20514;-62
2023/09/20 04:42:32;;;;;;;0.57;0.57;;;11.60;99.90;;;;;;5051497;28;20176;-62
2023/09/20 04:44:59;;;;;;;0.57;0.57;;;11.70;99.90;;;;;;5051345;28;20651;-62
2023/09/20 04:47:24;;;;;;;1.33;1.23;;;11.70;99.90;;;;;;5051065;28;20428;-62
2023/09/20 04:49:51;;;;;;;0.67;0.67;;;11.80;99.90;;;;;;5051321;28;20415;-62
2023/09/20 04:52:16;;;;;;;1.13;1.13;;;11.70;99.90;;;;;;5051244;28;20182;-62
2023/09/20 04:54:43;;;;;;;2.63;0.90;;;11.60;99.90;;;;;;5051415;28;20490;-62
2023/09/20 04:57:12;;;;;;;0.50;0.50;;;11.50;99.90;;;;;;5050779;28;20193;-62
2023/09/20 04:59:39;;;;;;;3.70;0.70;;;11.40;99.90;;;;;;5051782;28;20917;-62
2023/09/20 05:02:05;;;;;;;0.80;0.80;;;11.50;99.90;;;;;;5051165;28;20407;-62
2023/09/20 05:04:34;;;;;;;0.80;0.80;;;11.50;99.90;;;;;;5051069;28;20409;-63
2023/09/20 05:07:05;;;;;;;0.60;0.50;;;11.50;99.90;;;;;;5050720;28;20448;-62
2023/09/20 05:09:32;;;;;;;0.67;0.50;;;11.50;99.90;;;;;;5051364;28;20411;-62
2023/09/20 05:11:58;;;;;;;1.17;1.03;;;11.60;99.90;;;;;;5051178;28;20408;-62
2023/09/20 05:14:23;;;;;;;0.47;0.47;;;11.70;99.90;;;;;;5050907;28;20451;-62
2023/09/20 05:16:49;;;;;;;0.93;0.60;;;11.70;99.90;;;;;;5050660;28;20236;-62
2023/09/20 05:19:16;;;;;;;3.27;1.23;;;11.70;99.90;;;;;;5050979;28;20405;-62
2023/09/20 05:21:42;;;;;;;1.10;1.00;;;11.60;99.90;;;;;;5050981;28;20652;-62
2023/09/20 05:24:07;;;;;;;0.50;0.50;;;11.50;99.90;;;;;;5050989;28;20454;-62
2023/09/20 05:26:33;;;;;;;0.80;0.80;;;11.50;99.90;;;;;;5050600;28;20194;-62
2023/09/20 05:28:59;;;;;;;2.13;1.60;;;11.40;99.90;;;;;;5050989;28;20178;-62
2023/09/20 05:31:26;;;;;;;3.50;0.90;;;11.40;99.90;;;;;;5053239;28;20169;-62
2023/09/20 05:33:52;;;;;;;0.63;0.63;;;11.40;99.90;;;;;;5060572;28;20174;-62
2023/09/20 05:36:21;;;;;;;0.60;0.60;;;11.40;99.90;;;;;;5059851;28;20548;-62
2023/09/20 05:38:48;;;;;;;0.40;0.40;;;11.50;99.90;;;;;;5065876;28;20405;-62
2023/09/20 05:41:15;;;;;;;0.50;0.50;;;11.60;99.90;;;;;;5063980;28;20426;-62
2023/09/20 05:43:42;;;;;;;0.40;0.40;;;11.70;99.90;;;;;;5054106;28;20821;-62
2023/09/20 05:46:08;;;;;;;0.70;0.70;;;11.80;99.90;;;;;;5053977;28;20432;-62
2023/09/20 05:48:34;;;;;;;1.03;1.00;;;11.80;99.90;;;;;;5056911;28;20412;-62
2023/09/20 05:51:01;;;;;;;1.90;1.80;;;11.80;99.90;;;;;;5056800;28;20503;-62
2023/09/20 05:53:26;;;;;;;0.77;0.67;;;12.00;99.90;;;;;;5053993;28;20415;-62
2023/09/20 05:55:54;;;;;;;0.50;0.50;;;12.00;99.90;;;;;;5053610;28;20460;-62
2023/09/20 05:58:19;;;;;;;1.43;0.60;;;12.00;99.90;;;;;;5054140;28;20840;-62
2023/09/20 06:00:45;;;;;;;1.03;0.73;;;12.00;99.90;;;;;;5053808;28;20174;-62
2023/09/20 06:03:12;;;;;;;0.50;0.50;;;12.10;99.90;;;;;;5053677;28;20699;-62
2023/09/20 06:05:39;;;;;;;1.00;0.93;;;12.10;99.90;;;;;;5053063;28;20285;-62
2023/09/20 06:08:07;;;;;;;0.60;0.60;;;12.10;99.90;;;;;;5053906;28;20871;-62
2023/09/20 06:10:33;;;;;;;0.80;0.50;;;12.10;99.90;;;;;;5054045;28;20838;-62
2023/09/20 06:12:59;;;;;;;0.70;0.70;;;12.20;99.90;;;;;;5053700;28;20504;-62
2023/09/20 06:15:25;;;;;;;0.73;0.63;;;12.30;99.90;;;;;;5053150;28;20456;-62
2023/09/20 06:17:51;;;;;;;0.63;0.63;;;12.20;99.90;;;;;;5053965;28;20419;-62
2023/09/20 06:20:21;;;;;;;0.67;0.67;;;12.30;99.90;;;;;;5053939;28;20172;-62
2023/09/20 06:22:48;;;;;;;0.43;0.43;;;12.30;99.90;;;;;;5053279;28;20412;-62
2023/09/20 06:25:15;;;;;;;0.60;0.60;;;12.30;99.90;;;;;;5053347;28;20417;-62
2023/09/20 06:27:41;;;;;;;1.93;1.73;;;12.50;99.90;;;;;;5035681;28;20776;-62
2023/09/20 06:30:07;;;;;;;0.40;0.40;;;12.70;99.90;;;;;;5053591;28;20412;-63
2023/09/20 06:32:33;;;;;;;0.73;0.63;;;12.80;99.90;;;;;;5053847;28;20404;-62
2023/09/20 06:35:09;;;;;;;2.37;1.27;;;12.90;99.90;;;;;;5053384;28;20449;-62
2023/09/20 06:37:36;;;;;;;0.67;0.67;;;13.00;99.90;;;;;;5053304;28;20397;-62
2023/09/20 06:40:05;;;;;;;0.40;0.40;;;13.10;99.90;;;;;;5053451;28;20401;-62
2023/09/20 06:42:30;;;;;;;1.57;1.10;;;13.30;99.90;;;;;;5053209;28;20942;-62
2023/09/20 06:44:57;;;;;;;2.50;0.80;;;13.30;99.90;;;;;;5053298;28;20409;-62
2023/09/20 06:47:23;;;;;;;0.60;0.60;;;13.30;99.90;;;;;;5052204;28;20208;-62
2023/09/20 06:49:49;;;;;;;0.80;0.80;;;13.40;99.90;;;;;;5053047;28;20463;-62
2023/09/20 06:52:15;;;;;;;1.37;1.07;;;13.60;99.90;;;;;;5053263;28;20866;-62
2023/09/20 06:54:40;;;;;;;0.80;0.70;;;14.00;99.90;;;;;;5053021;28;20193;-62
2023/09/20 06:57:07;;;;;;;3.73;1.80;;;14.50;99.90;;;;;;5052593;28;20222;-63
2023/09/20 06:59:34;;;;;;;0.60;0.60;;;15.10;99.90;;;;;;5053483;28;20261;-63
2023/09/20 07:02:00;;;;;;;1.70;1.60;;;15.70;99.90;;;;;;5052993;28;20408;-63
2023/09/20 07:04:27;;;;;;;0.83;0.83;;;16.30;99.90;;;;;;5053046;28;20411;-63
2023/09/20 07:06:54;;;;;;;0.80;0.80;;;17.10;99.90;;;;;;5052367;28;20452;-63
2023/09/20 07:09:21;;;;;;;0.60;0.60;;;18.50;99.90;;;;;;5052788;28;20395;-63
2023/09/20 07:11:48;;;;;;;0.80;0.80;;;20.20;98.70;;;;;;5052619;28;20395;-63
2023/09/20 07:14:14;;;;;;;0.90;0.90;;;21.90;96.00;;;;;;5059744;28;20408;-63
2023/09/20 07:16:40;;;;;;;0.57;0.57;;;23.50;94.00;;;;;;5061454;28;20438;-63
2023/09/20 07:19:06;;;;;;;1.80;0.80;;;24.80;87.60;;;;;;5060493;28;20409;-63
2023/09/20 07:21:37;;;;;;;1.17;0.60;;;26.00;83.90;;;;;;5061844;28;20923;-63
2023/09/20 07:24:06;;;;;;;0.97;0.50;;;27.30;77.30;;;;;;5068710;28;20185;-63
2023/09/20 07:26:32;;;;;;;0.60;0.60;;;28.60;73.30;;;;;;5071896;28;20994;-63
2023/09/20 07:28:59;;;;;;;0.80;0.60;;;29.90;65.20;;;;;;5072499;28;20404;-64
2023/09/20 07:31:26;;;;;;;1.30;1.20;;;31.10;60.90;;;;;;5072197;28;20860;-64
2023/09/20 07:33:55;;;;;;;0.60;0.60;;;32.20;57.70;;;;;;5071918;28;20427;-64
2023/09/20 07:36:20;;;;;;;1.67;0.80;;;33.00;55.20;;;;;;5071512;28;20455;-64
2023/09/20 07:38:46;;;;;;;1.00;0.80;;;33.50;51.40;;;;;;5072118;28;20858;-64
2023/09/20 07:41:17;;;;;;;0.60;0.60;;;33.80;51.20;;;;;;5071789;28;20579;-64
2023/09/20 07:43:44;;;;;;;0.80;0.80;;;34.30;49.90;;;;;;5071726;28;20252;-64
2023/09/20 07:46:13;;;;;;;1.03;1.00;;;34.80;48.50;;;;;;5071245;28;20477;-64
2023/09/20 07:48:50;;;;;;;2.43;0.63;;;35.40;47.00;;;;;;5071367;28;20519;-64
2023/09/20 07:51:28;;;;;;;0.90;0.90;;;36.00;46.30;;;;;;5071591;28;20419;-64
2023/09/20 07:53:54;;;;;;;1.47;0.60;;;36.60;45.10;;;;;;5071818;28;20422;-62
2023/09/20 07:56:21;;;;;;;0.83;0.77;;;37.10;44.30;;;;;;5070310;28;20463;-62
2023/09/20 07:58:47;;;;;;;1.43;0.70;;;37.50;42.20;;;;;;5071501;28;20404;-64
2023/09/20 08:01:21;;;;;;;0.70;0.70;;;37.70;41.50;;;;;;5071590;28;20925;-71
2023/09/20 08:03:55;;;;;;;0.87;0.77;;;37.40;40.70;;;;;;5053981;28;20419;-71
2023/09/20 08:06:24;;;;;;;1.00;0.80;;;36.00;42.20;;;;;;5071702;28;20446;-71
2023/09/20 08:08:49;;;;;;;1.23;0.80;;;34.10;44.60;;;;;;5071546;28;20407;-62
2023/09/20 08:11:15;;;;;;;0.57;0.57;;;32.00;48.10;;;;;;5071664;28;20962;-62
2023/09/20 08:13:40;;;;;;;0.80;0.70;;;31.40;50.30;;;;;;5071621;28;20527;-62
2023/09/20 08:16:09;;;;;;;0.60;0.60;;;32.10;49.60;;;;;;5071154;28;20209;-62
2023/09/20 08:21:26;;;;;;;3.43;0.80;;;34.40;48.00;;;;;;5071148;28;20411;-63
2023/09/20 08:59:48;;;;;;;1.00;0.70;;;35.90;40.30;;;;;;5071578;28;20426;-62
2023/09/20 09:02:17;;;;;;;2.33;0.60;;;36.10;39.20;;;;;;5071821;28;20430;-62
2023/09/20 09:04:47;;;;;;;2.90;1.17;;;36.20;37.90;;;;;;5071236;28;20407;-62
2023/09/20 09:07:13;;;;;;;0.70;0.70;;;36.20;39.10;;;;;;5070743;28;20956;-62
2023/09/20 09:09:40;;;;;;;0.93;0.90;;;36.50;37.50;;;;;;5070374;28;20968;-62
2023/09/20 09:12:07;;;;;;;1.03;0.80;;;35.80;38.10;;;;;;5072910;28;20494;-62
2023/09/20 09:14:36;;;;;;;0.67;0.50;;;34.90;39.00;;;;;;5074050;28;20980;-62
2023/09/20 09:17:03;;;;;;;1.13;0.80;;;33.80;40.30;;;;;;5074417;28;20430;-62
2023/09/20 09:19:29;;;;;;;1.27;0.60;;;33.50;41.00;;;;;;5074171;28;20407;-62
2023/09/20 09:21:56;;;;;;;0.60;0.50;;;33.50;40.90;;;;;;5074369;28;20400;-62
2023/09/20 09:24:23;;;;;;;0.83;0.57;;;33.10;41.30;;;;;;5074388;28;20713;-61
2023/09/20 09:26:48;;;;;;;0.70;0.60;;;33.00;41.10;;;;;;5073786;28;20431;-62
2023/09/20 09:29:17;;;;;;;0.43;0.40;;;32.90;42.10;;;;;;5073816;28;20511;-62
2023/09/20 09:31:49;;;;;;;0.97;0.80;;;33.20;43.10;;;;;;5074010;28;20623;-62
2023/09/20 09:34:18;;;;;;;0.60;0.60;;;32.80;40.80;;;;;;5074215;28;20412;-62
2023/09/20 09:36:44;;;;;;;0.60;0.53;;;32.50;43.10;;;;;;5074176;28;20890;-62
2023/09/20 09:39:14;;;;;;;0.63;0.63;;;32.10;41.90;;;;;;5074487;28;20893;-62
2023/09/20 09:41:46;;;;;;;0.90;0.87;;;32.30;42.60;;;;;;5074371;28;20414;-62
2023/09/20 09:44:16;;;;;;;0.80;0.70;;;32.60;41.90;;;;;;5074603;28;20411;-62
2023/09/20 09:46:43;;;;;;;1.30;1.20;;;32.10;41.80;;;;;;5073822;28;20489;-62
2023/09/20 09:49:11;;;;;;;0.60;0.60;;;31.70;43.40;;;;;;5074383;28;20412;-62
2023/09/20 09:51:50;;;;;;;0.63;0.60;;;31.10;43.50;;;;;;5074267;28;20412;-62
2023/09/20 09:54:20;;;;;;;0.80;0.80;;;30.90;44.30;;;;;;5074108;28;20408;-62
2023/09/20 09:56:47;;;;;;;2.80;1.07;;;31.00;43.60;;;;;;5074003;28;20416;-62
2023/09/20 09:59:14;;;;;;;1.80;0.80;;;30.80;43.90;;;;;;5058371;28;20409;-62
2023/09/20 10:01:41;;;;;;;0.50;0.50;;;30.50;45.00;;;;;;5053675;28;20421;-62
2023/09/20 10:04:08;;;;;;;2.33;0.73;;;30.00;44.00;;;;;;5054045;28;20408;-62
2023/09/20 10:07:02;;;;;;;0.50;0.50;;;29.70;45.70;;;;;;5053476;28;20832;-62
2023/09/20 10:09:35;;;;;;;1.17;0.70;;;29.40;45.60;;;;;;5054007;28;20419;-62
2023/09/20 10:12:02;;;;;;;1.83;0.50;;;29.20;46.90;;;;;;5053973;28;20786;-61
2023/09/20 10:14:27;;;;;;;1.57;0.80;;;29.10;46.40;;;;;;5053875;28;20452;-62
2023/09/20 10:16:54;;;;;;;1.07;0.63;;;28.90;46.70;;;;;;5053181;28;20987;-62
2023/09/20 10:19:19;;;;;;;2.60;0.70;;;29.00;47.10;;;;;;5053648;28;20205;-62
2023/09/20 10:22:08;;;;;;;0.60;0.60;;;29.20;45.60;;;;;;5053380;28;20865;-62
2023/09/20 10:24:46;;;;;;;0.40;0.40;;;29.10;45.60;;;;;;5053869;28;20182;-64
2023/09/20 10:27:16;;;;;;;0.50;0.50;;;28.90;46.30;;;;;;5053392;28;20432;-64
2023/09/20 10:29:47;;;;;;;0.77;0.70;;;29.00;46.50;;;;;;5053377;28;20409;-64
2023/09/20 10:32:21;;;;;;;1.10;0.63;;;28.80;47.00;;;;;;5053363;28;20405;-64
2023/09/20 10:35:33;;;;;;;0.70;0.60;;;28.50;46.20;;;;;;5053088;28;21033;-64
2023/09/20 10:38:04;;;;;;;0.50;0.50;;;28.50;46.60;;;;;;5053660;28;20412;-64
2023/09/20 10:40:48;;;;;;;1.03;0.70;;;28.20;46.70;;;;;;5052549;28;20417;-64
2023/09/20 10:43:15;;;;;;;0.90;0.80;;;27.80;48.50;;;;;;5052674;28;20423;-64
2023/09/20 10:45:48;;;;;;;0.73;0.60;;;27.50;47.10;;;;;;5052053;28;20444;-64
2023/09/20 10:48:18;;;;;;;0.83;0.80;;;26.90;49.30;;;;;;5052322;28;20421;-64
2023/09/20 10:50:59;;;;;;;1.33;1.10;;;26.60;50.00;;;;;;5034451;28;21012;-64
2023/09/20 10:53:50;;;;;;;0.70;0.70;;;26.50;47.80;;;;;;5052303;28;20420;-63
2023/09/20 10:56:50;;;;;;;0.80;0.50;;;26.40;46.80;;;;;;5034740;28;20534;-64
2023/09/20 10:59:17;;;;;;;0.40;0.40;;;26.10;48.30;;;;;;5053238;28;20404;-64
2023/09/20 11:01:56;;;;;;;0.50;0.50;;;25.60;48.70;;;;;;5053048;28;20403;-64
2023/09/20 11:04:23;;;;;;;1.53;0.80;;;25.40;49.90;;;;;;5052950;28;20396;-64
2023/09/20 11:06:50;;;;;;;0.70;0.50;;;25.10;51.70;;;;;;5052490;28;20938;-64
2023/09/20 11:09:16;;;;;;;0.77;0.50;;;25.00;51.00;;;;;;5052825;28;20387;-64
2023/09/20 11:11:43;;;;;;;1.80;0.70;;;24.90;51.80;;;;;;5052812;28;20934;-64
2023/09/20 11:14:10;;;;;;;0.83;0.83;;;24.60;49.40;;;;;;5052963;28;20178;-64
2023/09/20 11:16:40;;;;;;;0.50;0.50;;;24.40;49.90;;;;;;5052394;28;20467;-63
2023/09/20 11:19:08;;;;;;;0.97;0.97;;;24.30;51.60;;;;;;5070419;28;20416;-64
2023/09/20 11:21:34;;;;;;;0.40;0.40;;;23.90;51.10;;;;;;5072525;28;20408;-63
2023/09/20 11:24:00;;;;;;;0.70;0.53;;;24.00;50.90;;;;;;5072516;28;20773;-63
2023/09/20 11:26:27;;;;;;;0.60;0.60;;;24.20;51.20;;;;;;5072117;28;20514;-63
2023/09/20 11:28:53;;;;;;;1.13;1.03;;;24.60;53.10;;;;;;5072471;28;20379;-64
2023/09/20 11:31:30;;;;;;;1.17;0.60;;;24.60;50.00;;;;;;5072418;28;20383;-63
2023/09/20 11:34:00;;;;;;;0.53;0.50;;;24.30;48.80;;;;;;5053951;28;20181;-64
2023/09/20 11:36:28;;;;;;;0.70;0.50;;;24.10;50.00;;;;;;5071639;28;20459;-64
2023/09/20 11:38:54;;;;;;;3.30;0.67;;;24.10;51.00;;;;;;5054467;28;20411;-63
2023/09/20 11:41:26;;;;;;;0.50;0.50;;;24.00;49.20;;;;;;5072209;28;20816;-64
2023/09/20 11:43:59;;;;;;;1.13;0.63;;;23.90;49.80;;;;;;5073192;28;20838;-64
2023/09/20 11:46:30;;;;;;;1.00;0.50;;;23.70;50.30;;;;;;5071760;28;20544;-64
2023/09/20 11:49:04;;;;;;;1.50;0.70;;;23.80;50.20;;;;;;5071938;28;20408;-64
2023/09/20 11:51:31;;;;;;;0.70;0.60;;;23.60;49.20;;;;;;5072131;28;20755;-64
2023/09/20 11:53:57;;;;;;;0.70;0.60;;;23.60;49.30;;;;;;5072315;28;20752;-63
2023/09/20 11:56:25;;;;;;;0.80;0.50;;;23.50;51.10;;;;;;5071521;28;20451;-64
2023/09/20 11:58:54;;;;;;;0.43;0.40;;;23.30;50.70;;;;;;5071928;28;20766;-64
2023/09/20 12:01:24;;;;;;;0.53;0.53;;;23.30;50.70;;;;;;5071742;28;20808;-63
2023/09/20 12:03:51;;;;;;;0.60;0.60;;;23.30;50.20;;;;;;5072114;28;20487;-64
2023/09/20 12:06:18;;;;;;;0.50;0.50;;;23.30;50.60;;;;;;5071373;28;20459;-64
2023/09/20 12:08:45;;;;;;;2.10;0.60;;;23.40;50.80;;;;;;5072098;28;20382;-63
2023/09/20 12:11:11;;;;;;;0.67;0.67;;;23.40;50.40;;;;;;5071726;28;20398;-64
2023/09/20 12:13:36;;;;;;;0.50;0.50;;;23.40;50.50;;;;;;5071777;28;20403;-64
2023/09/20 12:16:02;;;;;;;0.70;0.60;;;23.40;51.00;;;;;;5071216;28;20299;-63
2023/09/20 12:18:28;;;;;;;0.70;0.70;;;23.30;50.70;;;;;;5071757;28;20639;-63
2023/09/20 12:20:55;;;;;;;0.60;0.60;;;23.10;50.60;;;;;;5071652;28;20170;-64
2023/09/20 12:23:20;;;;;;;0.50;0.50;;;23.10;50.90;;;;;;5071786;28;20171;-63
2023/09/20 12:25:46;;;;;;;0.73;0.70;;;23.10;50.90;;;;;;5071242;28;20435;-64
2023/09/20 12:28:11;;;;;;;0.50;0.50;;;23.10;51.30;;;;;;5053508;28;20185;-64
2023/09/20 12:30:39;;;;;;;2.97;0.80;;;23.20;51.40;;;;;;5069853;28;20226;-64
2023/09/20 12:33:07;;;;;;;1.20;0.80;;;23.30;51.60;;;;;;5051428;28;20651;-64
2023/09/20 12:35:33;;;;;;;0.63;0.63;;;23.20;51.20;;;;;;5051209;28;20797;-64
2023/09/20 12:38:00;;;;;;;1.83;1.00;;;23.10;51.80;;;;;;5051340;28;20387;-64
2023/09/20 12:40:27;;;;;;;0.60;0.60;;;23.20;53.00;;;;;;5051447;28;20405;-63
2023/09/20 12:42:53;;;;;;;0.77;0.50;;;23.10;51.00;;;;;;5051392;28;20407;-64
2023/09/20 12:45:19;;;;;;;0.53;0.50;;;23.10;52.00;;;;;;5033430;28;20424;-64
2023/09/20 12:47:45;;;;;;;0.60;0.60;;;23.20;56.80;;;;;;5055063;28;20170;-64
2023/09/20 12:50:14;;;;;;;0.73;0.63;;;23.00;53.60;;;;;;5055509;28;20394;-64
2023/09/20 12:52:42;;;;;;;1.33;0.57;;;23.00;51.70;;;;;;5055799;28;20416;-64
2023/09/20 12:55:08;;;;;;;1.37;1.20;;;23.00;51.60;;;;;;5055137;28;20954;-64
2023/09/20 12:57:33;;;;;;;0.80;0.67;;;23.10;53.10;;;;;;5055065;28;20411;-64
2023/09/20 13:00:00;;;;;;;0.60;0.60;;;23.00;52.10;;;;;;5055389;28;20518;-64
2023/09/20 13:02:27;;;;;;;0.80;0.80;;;22.90;54.80;;;;;;5055448;28;20186;-64
2023/09/20 13:04:55;;;;;;;0.63;0.63;;;22.90;54.30;;;;;;5055111;28;20408;-64
2023/09/20 13:07:21;;;;;;;0.40;0.40;;;22.90;53.50;;;;;;5054752;28;20447;-64
2023/09/20 13:09:47;;;;;;;0.60;0.53;;;22.90;54.00;;;;;;5055228;28;20405;-64
2023/09/20 13:12:13;;;;;;;0.80;0.80;;;23.00;56.70;;;;;;5053896;28;20492;-63
2023/09/20 13:14:40;;;;;;;1.90;0.90;;;22.90;52.60;;;;;;5054876;28;20646;-64
2023/09/20 13:17:06;;;;;;;1.27;0.60;;;22.90;58.10;;;;;;5054599;28;20205;-63
2023/09/20 13:19:32;;;;;;;2.20;0.93;;;22.80;52.90;;;;;;5054614;28;20379;-64
2023/09/20 13:21:59;;;;;;;0.80;0.80;;;22.70;56.50;;;;;;5054567;28;20186;-64
2023/09/20 13:24:25;;;;;;;1.70;0.70;;;22.70;55.40;;;;;;5054223;28;20402;-64
2023/09/20 13:26:51;;;;;;;0.70;0.70;;;22.60;61.40;;;;;;5053661;28;20429;-64
2023/09/20 13:29:16;;;;;;;0.63;0.57;;;22.60;56.20;;;;;;5054486;28;20408;-64
2023/09/20 13:31:42;;;;;;;1.50;0.90;;;22.40;56.60;;;;;;5054865;28;20530;-63